createdAt,value
2022-08-24T00:00:23.075Z,24.60
2022-08-24T00:03:12.192Z,24.50
2022-08-24T00:06:00.404Z,24.60
2022-08-24T00:08:51.543Z,24.40
2022-08-24T00:11:38.993Z,24.50
2022-08-24T00:14:27.603Z,24.50
2022-08-24T00:17:15.224Z,24.50
2022-08-24T00:20:03.144Z,24.50
2022-08-24T00:22:50.826Z,24.50
2022-08-24T00:25:38.803Z,24.60
2022-08-24T00:28:26.524Z,24.50
2022-08-24T00:31:14.299Z,24.60
2022-08-24T00:34:02.583Z,24.60
2022-08-24T00:36:50.222Z,24.50
2022-08-24T00:39:37.883Z,24.50
2022-08-24T00:42:26.903Z,24.50
2022-08-24T00:45:16.493Z,24.50
2022-08-24T00:48:12.244Z,24.40
2022-08-24T00:51:06.913Z,24.50
2022-08-24T00:54:04.842Z,24.50
2022-08-24T00:56:59.021Z,24.50
2022-08-24T00:59:57.479Z,24.40
2022-08-24T01:02:49.368Z,24.50
2022-08-24T01:05:38.913Z,24.50
2022-08-24T01:08:26.957Z,24.40
2022-08-24T01:11:23.133Z,24.40
2022-08-24T01:14:10.833Z,24.50
2022-08-24T01:17:17.183Z,24.40
2022-08-24T01:20:07.382Z,24.50
2022-08-24T01:23:38.053Z,24.50
2022-08-24T01:26:46.099Z,24.50
2022-08-24T01:29:33.937Z,24.50
2022-08-24T01:32:27.996Z,24.30
2022-08-24T01:35:15.572Z,24.30
2022-08-24T01:38:09.002Z,24.40
2022-08-24T01:41:02.909Z,24.40
2022-08-24T01:43:50.448Z,24.40
2022-08-24T01:46:38.074Z,24.50
2022-08-24T01:49:30.577Z,24.40
2022-08-24T01:52:25.577Z,24.50
2022-08-24T01:55:19.123Z,24.40
2022-08-24T01:58:10.727Z,24.40
2022-08-24T02:00:58.817Z,24.40
2022-08-24T02:03:46.560Z,24.40
2022-08-24T02:06:39.563Z,24.40
2022-08-24T02:09:28.090Z,24.50
2022-08-24T02:12:21.312Z,24.50
2022-08-24T02:15:10.872Z,24.50
2022-08-24T02:18:00.163Z,24.50
2022-08-24T02:20:48.043Z,24.50
2022-08-24T02:23:38.578Z,24.50
2022-08-24T02:26:30.379Z,24.60
2022-08-24T02:29:19.535Z,24.60
2022-08-24T02:32:07.362Z,24.60
2022-08-24T02:34:55.116Z,24.60
2022-08-24T02:37:43.801Z,24.50
2022-08-24T02:40:32.493Z,24.50
2022-08-24T02:43:21.417Z,24.50
2022-08-24T02:46:16.293Z,24.40
2022-08-24T02:49:11.327Z,24.50
2022-08-24T02:51:59.763Z,24.50
2022-08-24T02:54:47.337Z,24.30
2022-08-24T02:57:34.950Z,24.40
2022-08-24T03:00:28.095Z,24.30
2022-08-24T03:03:15.707Z,24.30
2022-08-24T03:06:03.614Z,24.20
2022-08-24T03:08:56.189Z,24.20
2022-08-24T03:11:45.494Z,24.00
2022-08-24T03:14:33.708Z,24.10
2022-08-24T03:17:21.292Z,24.00
2022-08-24T03:20:15.408Z,24.00
2022-08-24T03:23:04.372Z,24.00
2022-08-24T03:25:53.022Z,23.90
2022-08-24T03:28:41.078Z,24.00
2022-08-24T03:31:32.716Z,24.00
2022-08-24T03:34:21.007Z,23.90
2022-08-24T03:37:08.617Z,23.90
2022-08-24T03:39:56.253Z,23.90
2022-08-24T03:42:43.837Z,23.90
2022-08-24T03:45:33.236Z,24.00
2022-08-24T03:48:21.428Z,24.00
2022-08-24T03:51:18.002Z,24.00
2022-08-24T03:54:12.423Z,24.10
2022-08-24T03:57:00.033Z,24.00
2022-08-24T03:59:47.656Z,24.10
2022-08-24T04:02:35.490Z,24.10
2022-08-24T04:05:23.035Z,24.20
2022-08-24T04:08:11.416Z,24.10
2022-08-24T04:10:59.917Z,24.20
2022-08-24T04:13:48.313Z,24.20
2022-08-24T04:16:35.868Z,24.30
2022-08-24T04:19:23.413Z,24.30
2022-08-24T04:22:10.933Z,24.20
2022-08-24T04:24:58.439Z,24.20
2022-08-24T04:27:45.987Z,24.20
2022-08-24T04:30:33.508Z,24.30
2022-08-24T04:33:21.012Z,24.30
2022-08-24T04:36:11.992Z,24.40
2022-08-24T04:39:01.320Z,24.40
2022-08-24T04:41:50.391Z,24.40
2022-08-24T04:44:38.257Z,24.60
2022-08-24T04:47:25.891Z,24.60
2022-08-24T04:50:13.493Z,24.60
2022-08-24T04:53:02.241Z,24.70
2022-08-24T04:55:50.587Z,24.70
2022-08-24T04:58:39.612Z,24.70
2022-08-24T05:01:32.728Z,24.70
2022-08-24T05:04:20.207Z,25.00
2022-08-24T05:07:08.378Z,24.90
2022-08-24T05:09:56.088Z,25.00
2022-08-24T05:12:44.330Z,25.00
2022-08-24T05:15:31.857Z,25.00
2022-08-24T05:18:19.377Z,24.90
2022-08-24T05:21:13.903Z,25.20
2022-08-24T05:24:01.767Z,24.80
2022-08-24T05:26:49.888Z,24.90
2022-08-24T05:29:37.452Z,25.30
2022-08-24T05:32:26.737Z,25.40
2022-08-24T05:35:14.207Z,25.60
2022-08-24T05:38:01.690Z,25.90
2022-08-24T05:40:49.188Z,25.90
2022-08-24T05:43:36.692Z,26.10
2022-08-24T05:46:24.311Z,26.20
2022-08-24T05:49:12.398Z,26.30
2022-08-24T05:52:00.337Z,26.20
2022-08-24T05:54:54.538Z,26.20
2022-08-24T05:57:42.538Z,26.20
2022-08-24T06:00:32.097Z,26.00
2022-08-24T06:03:19.688Z,26.20
2022-08-24T06:06:09.319Z,26.10
2022-08-24T06:09:00.498Z,26.20
2022-08-24T06:11:48.733Z,26.50
2022-08-24T06:14:36.953Z,26.80
2022-08-24T06:17:24.536Z,27.00
2022-08-24T06:20:12.386Z,27.20
2022-08-24T06:23:00.151Z,27.30
2022-08-24T06:26:06.412Z,27.20
2022-08-24T06:28:54.397Z,27.10
2022-08-24T06:31:46.472Z,27.60
2022-08-24T06:34:34.072Z,28.00
2022-08-24T06:37:26.554Z,27.80
2022-08-24T06:40:17.101Z,27.90
2022-08-24T06:43:05.101Z,28.10
2022-08-24T06:45:56.047Z,28.40
2022-08-24T06:48:43.533Z,28.40
2022-08-24T06:51:32.472Z,28.50
2022-08-24T06:54:21.068Z,28.50
2022-08-24T06:57:09.082Z,28.60
2022-08-24T06:59:56.538Z,28.60
2022-08-24T07:02:44.211Z,28.70
2022-08-24T07:05:31.784Z,28.80
2022-08-24T07:08:21.208Z,28.50
2022-08-24T07:11:11.420Z,28.40
2022-08-24T07:13:59.328Z,28.30
2022-08-24T07:16:47.239Z,28.20
2022-08-24T07:19:34.719Z,27.40
2022-08-24T07:22:22.158Z,26.90
2022-08-24T07:25:12.052Z,27.00
2022-08-24T07:28:06.758Z,27.20
2022-08-24T07:30:56.916Z,27.60
2022-08-24T07:33:45.209Z,27.50
2022-08-24T07:36:34.271Z,27.50
2022-08-24T07:39:21.807Z,27.60
2022-08-24T07:42:13.365Z,28.10
2022-08-24T07:45:04.487Z,28.40
2022-08-24T07:47:55.532Z,28.40
2022-08-24T07:50:44.228Z,28.40
2022-08-24T07:53:43.750Z,28.60
2022-08-24T07:56:39.527Z,28.60
2022-08-24T07:59:27.101Z,28.90
2022-08-24T08:02:14.922Z,29.20
2022-08-24T08:05:03.260Z,29.50
2022-08-24T08:07:52.523Z,29.70
2022-08-24T08:10:40.873Z,30.00
2022-08-24T08:13:29.897Z,30.10
2022-08-24T08:16:21.115Z,30.20
2022-08-24T08:19:10.662Z,30.10
2022-08-24T08:22:17.383Z,30.50
2022-08-24T08:25:08.162Z,30.70
2022-08-24T08:28:01.092Z,30.50
2022-08-24T08:30:55.757Z,30.50
2022-08-24T08:33:44.068Z,30.60
2022-08-24T08:36:32.684Z,30.80
2022-08-24T08:39:22.989Z,31.30
2022-08-24T08:42:33.873Z,31.70
2022-08-24T08:45:55.573Z,31.70
2022-08-24T08:49:11.304Z,32.00
2022-08-24T08:52:28.817Z,32.30
2022-08-24T08:55:29.400Z,32.40
2022-08-24T08:58:57.635Z,32.70
2022-08-24T09:02:37.838Z,32.90
2022-08-24T09:05:44.704Z,32.70
2022-08-24T09:08:59.547Z,33.30
2022-08-24T09:11:50.275Z,33.30
2022-08-24T09:15:26.072Z,33.50
2022-08-24T09:18:27.727Z,33.70
2022-08-24T09:21:48.648Z,33.80
2022-08-24T09:24:54.169Z,33.80
2022-08-24T09:28:14.823Z,33.10
2022-08-24T09:31:27.215Z,33.50
2022-08-24T09:34:48.632Z,33.40
2022-08-24T09:38:30.262Z,32.80
2022-08-24T09:42:09.069Z,32.50
2022-08-24T09:45:27.520Z,32.00
2022-08-24T09:48:26.593Z,31.40
2022-08-24T09:51:59.433Z,31.40
2022-08-24T09:55:31.663Z,31.60
2022-08-24T09:59:04.849Z,31.30
2022-08-24T10:02:35.162Z,31.70
2022-08-24T10:05:40.383Z,31.80
2022-08-24T10:09:20.608Z,32.10
2022-08-24T10:12:22.678Z,32.20
2022-08-24T10:15:37.489Z,32.20
2022-08-24T10:19:17.342Z,32.70
2022-08-24T10:22:40.119Z,33.10
2022-08-24T10:26:07.732Z,32.80
2022-08-24T10:29:00.914Z,33.40
2022-08-24T10:31:48.707Z,33.20
2022-08-24T10:35:13.872Z,32.90
2022-08-24T10:39:13.378Z,33.20
2022-08-24T10:43:08.392Z,33.90
2022-08-24T10:46:33.313Z,33.90
2022-08-24T10:49:35.465Z,34.10
2022-08-24T10:52:44.683Z,33.90
2022-08-24T10:55:35.172Z,33.50
2022-08-24T10:59:07.077Z,33.90
2022-08-24T11:02:12.889Z,34.00
2022-08-24T11:05:14.468Z,34.30
2022-08-24T11:08:07.337Z,34.60
2022-08-24T11:11:22.412Z,35.30
2022-08-24T11:14:29.501Z,35.10
2022-08-24T11:17:21.497Z,34.70
2022-08-24T11:20:33.312Z,35.40
2022-08-24T11:23:36.572Z,35.60
2022-08-24T11:26:24.592Z,35.20
2022-08-24T11:29:12.057Z,34.80
2022-08-24T11:31:59.888Z,34.60
2022-08-24T11:34:48.976Z,34.90
2022-08-24T11:37:39.852Z,35.40
2022-08-24T11:40:31.533Z,35.40
2022-08-24T11:43:32.057Z,35.70
2022-08-24T11:46:42.814Z,35.90
2022-08-24T11:49:59.533Z,34.60
2022-08-24T11:53:12.701Z,35.40
2022-08-24T11:56:36.880Z,34.70
2022-08-24T11:59:48.489Z,34.70
2022-08-24T12:03:04.422Z,35.10
2022-08-24T12:06:49.482Z,34.90
2022-08-24T12:10:32.115Z,35.40
2022-08-24T12:14:04.957Z,35.30
2022-08-24T12:17:19.169Z,34.40
2022-08-24T12:20:42.658Z,34.70
2022-08-24T12:23:52.247Z,35.30
2022-08-24T12:27:02.506Z,35.20
2022-08-24T12:30:05.404Z,35.00
2022-08-24T12:33:11.837Z,35.20
2022-08-24T12:36:08.032Z,35.10
2022-08-24T12:39:13.606Z,35.40
2022-08-24T12:42:32.567Z,35.50
2022-08-24T12:45:24.631Z,35.40
2022-08-24T12:48:39.564Z,35.30
2022-08-24T12:52:05.624Z,34.80
2022-08-24T12:55:23.122Z,34.80
2022-08-24T12:58:35.193Z,34.70
2022-08-24T13:01:29.775Z,34.60
2022-08-24T13:04:55.182Z,33.20
2022-08-24T13:07:49.067Z,33.10
2022-08-24T13:10:59.867Z,33.10
2022-08-24T13:14:25.646Z,32.30
2022-08-24T13:17:18.040Z,31.90
2022-08-24T13:20:28.607Z,31.90
2022-08-24T13:23:24.917Z,32.20
2022-08-24T13:26:26.732Z,32.70
2022-08-24T13:29:16.741Z,32.60
2022-08-24T13:32:08.626Z,33.10
2022-08-24T13:34:58.928Z,33.30
2022-08-24T13:38:30.652Z,33.60
2022-08-24T13:41:57.442Z,34.00
2022-08-24T13:45:32.037Z,34.00
2022-08-24T13:48:45.737Z,33.80
2022-08-24T13:52:22.657Z,33.50
2022-08-24T13:55:57.663Z,34.00
2022-08-24T13:59:31.132Z,34.10
2022-08-24T14:02:33.777Z,33.90
2022-08-24T14:05:30.759Z,34.30
2022-08-24T14:08:34.022Z,34.40
2022-08-24T14:11:24.202Z,33.50
2022-08-24T14:14:57.324Z,32.90
2022-08-24T14:18:36.737Z,33.50
2022-08-24T14:21:45.897Z,33.90
2022-08-24T14:24:57.217Z,33.90
2022-08-24T14:28:25.133Z,34.10
2022-08-24T14:31:16.915Z,33.90
2022-08-24T14:34:41.948Z,33.70
2022-08-24T14:38:01.692Z,34.00
2022-08-24T14:41:24.374Z,33.80
2022-08-24T14:44:19.878Z,34.00
2022-08-24T14:47:56.960Z,34.20
2022-08-24T14:50:52.119Z,34.70
2022-08-24T14:54:15.827Z,34.40
2022-08-24T14:57:44.133Z,34.50
2022-08-24T15:00:56.454Z,33.20
2022-08-24T15:04:37.116Z,34.20
2022-08-24T15:07:31.463Z,34.40
2022-08-24T15:10:26.486Z,34.40
2022-08-24T15:13:38.103Z,34.80
2022-08-24T15:16:53.982Z,35.20
2022-08-24T15:19:54.291Z,35.30
2022-08-24T15:23:03.443Z,35.40
2022-08-24T15:26:10.642Z,34.80
2022-08-24T15:28:59.396Z,35.10
2022-08-24T15:32:02.657Z,35.60
2022-08-24T15:34:58.410Z,35.70
2022-08-24T15:37:45.957Z,35.80
2022-08-24T15:40:33.772Z,35.70
2022-08-24T15:43:22.664Z,34.30
2022-08-24T15:46:11.760Z,34.60
2022-08-24T15:49:13.496Z,35.30
2022-08-24T15:52:09.508Z,35.40
2022-08-24T15:55:03.691Z,35.30
2022-08-24T15:57:51.171Z,35.10
2022-08-24T16:00:57.439Z,35.20
2022-08-24T16:03:58.793Z,35.20
2022-08-24T16:06:49.112Z,34.90
2022-08-24T16:09:37.917Z,35.10
2022-08-24T16:12:32.387Z,35.10
2022-08-24T16:15:21.098Z,35.30
2022-08-24T16:18:08.610Z,35.30
2022-08-24T16:21:00.167Z,34.60
2022-08-24T16:24:00.946Z,33.90
2022-08-24T16:26:52.037Z,34.30
2022-08-24T16:29:39.512Z,34.60
2022-08-24T16:32:51.337Z,34.60
2022-08-24T16:35:41.107Z,34.60
2022-08-24T16:38:31.485Z,34.30
2022-08-24T16:41:24.377Z,33.90
2022-08-24T16:44:12.567Z,33.40
2022-08-24T16:47:00.988Z,33.50
2022-08-24T16:49:49.352Z,33.20
2022-08-24T16:52:36.892Z,33.20
2022-08-24T16:55:24.572Z,33.20
2022-08-24T16:58:12.304Z,33.20
2022-08-24T17:01:00.698Z,33.00
2022-08-24T17:03:48.512Z,32.90
2022-08-24T17:06:36.962Z,32.90
2022-08-24T17:09:24.462Z,32.70
2022-08-24T17:12:12.277Z,32.60
2022-08-24T17:14:59.874Z,32.60
2022-08-24T17:18:11.449Z,32.20
2022-08-24T17:21:01.413Z,32.10
2022-08-24T17:23:48.968Z,31.90
2022-08-24T17:26:38.017Z,31.90
2022-08-24T17:29:33.592Z,31.90
2022-08-24T17:32:21.177Z,31.80
2022-08-24T17:35:09.129Z,31.60
2022-08-24T17:37:58.460Z,31.40
2022-08-24T17:40:46.027Z,31.10
2022-08-24T17:43:33.547Z,30.90
2022-08-24T17:46:22.617Z,30.80
2022-08-24T17:49:13.321Z,30.80
2022-08-24T17:52:01.207Z,30.60
2022-08-24T17:54:48.727Z,30.30
2022-08-24T17:57:37.378Z,30.10
2022-08-24T18:00:25.037Z,29.90
2022-08-24T18:03:16.475Z,29.70
2022-08-24T18:06:04.478Z,29.60
2022-08-24T18:08:53.069Z,29.40
2022-08-24T18:11:41.213Z,29.10
2022-08-24T18:14:30.723Z,28.90
2022-08-24T18:17:23.033Z,28.80
2022-08-24T18:20:14.338Z,28.60
2022-08-24T18:23:02.207Z,28.40
2022-08-24T18:25:52.695Z,28.30
2022-08-24T18:28:42.454Z,28.20
2022-08-24T18:31:30.839Z,28.10
2022-08-24T18:34:22.352Z,28.10
2022-08-24T18:37:10.352Z,27.80
2022-08-24T18:39:57.962Z,27.80
2022-08-24T18:42:48.032Z,27.80
2022-08-24T18:45:36.067Z,27.90
2022-08-24T18:48:24.432Z,27.90
2022-08-24T18:51:15.930Z,27.90
2022-08-24T18:54:11.212Z,27.80
2022-08-24T18:56:58.728Z,27.60
2022-08-24T18:59:47.061Z,27.50
2022-08-24T19:02:36.953Z,27.50
2022-08-24T19:05:25.330Z,27.40
2022-08-24T19:08:13.245Z,27.30
2022-08-24T19:11:00.928Z,27.20
2022-08-24T19:13:48.648Z,27.20
2022-08-24T19:16:36.941Z,27.00
2022-08-24T19:19:24.707Z,27.00
2022-08-24T19:22:12.813Z,26.80
2022-08-24T19:25:01.613Z,26.90
2022-08-24T19:27:53.680Z,26.80
2022-08-24T19:30:44.853Z,26.80
2022-08-24T19:33:43.014Z,26.60
2022-08-24T19:36:31.932Z,26.50
2022-08-24T19:39:19.477Z,26.50
2022-08-24T19:42:13.737Z,26.40
2022-08-24T19:45:20.818Z,26.50
2022-08-24T19:48:10.367Z,26.30
2022-08-24T19:51:00.072Z,26.30
2022-08-24T19:53:47.865Z,26.20
2022-08-24T19:56:36.132Z,26.10
2022-08-24T19:59:35.007Z,26.10
2022-08-24T20:02:23.207Z,26.00
2022-08-24T20:05:10.786Z,25.90
2022-08-24T20:08:00.489Z,25.90
2022-08-24T20:10:49.777Z,25.90
2022-08-24T20:13:38.300Z,25.90
2022-08-24T20:16:34.333Z,25.90
2022-08-24T20:19:22.638Z,25.80
2022-08-24T20:22:13.518Z,25.80
2022-08-24T20:25:01.309Z,25.70
2022-08-24T20:27:58.099Z,25.70
2022-08-24T20:30:54.869Z,25.70
2022-08-24T20:33:43.222Z,25.70
2022-08-24T20:36:42.589Z,25.70
2022-08-24T20:39:30.321Z,25.70
2022-08-24T20:42:21.269Z,25.70
2022-08-24T20:45:12.494Z,25.60
2022-08-24T20:48:00.103Z,25.60
2022-08-24T20:50:47.608Z,25.60
2022-08-24T20:53:35.319Z,25.70
2022-08-24T20:56:33.508Z,25.60
2022-08-24T20:59:21.047Z,25.60
2022-08-24T21:02:08.622Z,25.50
2022-08-24T21:04:56.167Z,25.50
2022-08-24T21:07:49.728Z,25.40
2022-08-24T21:10:37.617Z,25.30
2022-08-24T21:13:25.128Z,25.30
2022-08-24T21:16:15.487Z,25.30
2022-08-24T21:19:03.738Z,25.30
2022-08-24T21:21:51.293Z,25.30
2022-08-24T21:24:38.907Z,25.20
2022-08-24T21:27:26.894Z,25.30
2022-08-24T21:30:21.912Z,25.20
2022-08-24T21:33:28.208Z,25.20
2022-08-24T21:36:16.129Z,25.10
2022-08-24T21:39:10.175Z,25.10
2022-08-24T21:41:58.810Z,25.20
2022-08-24T21:44:46.328Z,25.20
2022-08-24T21:47:33.869Z,25.10
2022-08-24T21:50:25.730Z,25.10
2022-08-24T21:53:13.483Z,25.00
2022-08-24T21:56:01.912Z,25.00
2022-08-24T21:58:49.512Z,25.10
2022-08-24T22:01:38.867Z,25.00
2022-08-24T22:04:27.774Z,25.00
2022-08-24T22:07:15.366Z,25.00
2022-08-24T22:10:03.888Z,25.00
2022-08-24T22:12:51.967Z,25.00
2022-08-24T22:15:39.565Z,24.90
2022-08-24T22:18:27.198Z,24.90
2022-08-24T22:21:21.149Z,25.00
2022-08-24T22:24:09.363Z,25.10
2022-08-24T22:26:57.168Z,25.00
2022-08-24T22:29:44.709Z,24.90
2022-08-24T22:32:32.287Z,24.90
2022-08-24T22:35:19.948Z,24.80
2022-08-24T22:38:09.022Z,24.80
2022-08-24T22:40:56.573Z,24.70
2022-08-24T22:44:02.743Z,24.70
2022-08-24T22:46:59.292Z,24.70
2022-08-24T22:49:46.833Z,24.70
2022-08-24T22:52:34.414Z,24.70
2022-08-24T22:55:23.491Z,24.60
2022-08-24T22:58:11.132Z,24.60
2022-08-24T23:00:58.593Z,24.50
2022-08-24T23:03:49.737Z,24.60
2022-08-24T23:06:37.692Z,24.50
2022-08-24T23:09:25.963Z,24.50
2022-08-24T23:12:24.572Z,24.40
2022-08-24T23:15:12.443Z,24.40
2022-08-24T23:18:19.894Z,24.30
2022-08-24T23:21:13.673Z,24.30
2022-08-24T23:24:01.821Z,24.30
2022-08-24T23:26:49.646Z,24.30
2022-08-24T23:29:37.819Z,24.30
2022-08-24T23:32:26.934Z,24.30
2022-08-24T23:35:14.419Z,24.30
2022-08-24T23:38:01.975Z,24.40
2022-08-24T23:40:49.462Z,24.40
2022-08-24T23:43:37.248Z,24.30
2022-08-24T23:46:25.125Z,24.30
2022-08-24T23:49:14.877Z,24.40
2022-08-24T23:52:03.362Z,24.40
2022-08-24T23:54:51.062Z,24.40
2022-08-24T23:57:38.592Z,24.30
